createdAt,value
2022-10-09T03:58:53.263Z,1021.10
2022-10-09T03:59:53.331Z,1021.14
2022-10-09T04:00:53.497Z,1021.17
2022-10-09T04:01:55.162Z,1021.19
2022-10-09T04:02:53.956Z,1021.16
2022-10-09T04:03:54.799Z,1021.16
2022-10-09T04:04:53.982Z,1021.17
2022-10-09T04:05:55.711Z,1021.13
2022-10-09T04:06:54.241Z,1021.14
2022-10-09T04:07:54.404Z,1021.20
2022-10-09T04:08:55.618Z,1021.15
2022-10-09T04:09:54.645Z,1021.19
2022-10-09T04:10:56.380Z,1021.21
2022-10-09T04:11:54.899Z,1021.17
2022-10-09T04:12:55.099Z,1021.13
2022-10-09T04:13:56.818Z,1021.10
2022-10-09T04:14:55.338Z,1021.14
2022-10-09T04:15:57.108Z,1021.13
2022-10-09T04:16:55.628Z,1021.11
2022-10-09T04:17:57.357Z,1021.14
2022-10-09T04:18:56.886Z,1021.16
2022-10-09T04:19:57.002Z,1021.15
2022-10-09T04:20:56.123Z,1021.20
2022-10-09T04:21:57.859Z,1021.18
2022-10-09T04:22:56.399Z,1021.16
2022-10-09T04:23:57.478Z,1021.16
2022-10-09T04:24:56.695Z,1021.17
2022-10-09T04:25:56.802Z,1021.17
2022-10-09T04:26:56.976Z,1021.11
2022-10-09T04:27:58.207Z,1021.16
2022-10-09T04:28:59.937Z,1021.17
2022-10-09T04:29:57.370Z,1021.10
2022-10-09T04:30:58.606Z,1021.15
2022-10-09T04:31:57.669Z,1021.17
2022-10-09T04:32:57.757Z,1021.15
2022-10-09T04:33:57.911Z,1021.12
2022-10-09T04:34:59.617Z,1021.14
2022-10-09T04:35:58.199Z,1021.07
2022-10-09T04:36:59.928Z,1021.14
2022-10-09T04:37:58.489Z,1021.15
2022-10-09T04:38:58.646Z,1021.11
2022-10-09T04:39:58.806Z,1021.18
2022-10-09T04:40:58.962Z,1021.16
2022-10-09T04:41:59.085Z,1021.17
2022-10-09T04:43:00.864Z,1021.13
2022-10-09T04:44:01.064Z,1021.15
2022-10-09T04:44:59.527Z,1021.15
2022-10-09T04:45:59.678Z,1021.11
2022-10-09T04:46:59.802Z,1021.15
2022-10-09T04:48:00.945Z,1021.11
2022-10-09T04:49:01.036Z,1021.11
2022-10-09T04:50:01.285Z,1021.11
2022-10-09T04:51:01.994Z,1021.18
2022-10-09T04:52:00.452Z,1021.18
2022-10-09T04:53:02.183Z,1021.16
2022-10-09T04:54:01.700Z,1021.17
2022-10-09T04:55:01.843Z,1021.14
2022-10-09T04:56:01.003Z,1021.15
2022-10-09T04:57:02.763Z,1021.18
2022-10-09T04:58:01.283Z,1021.15
2022-10-09T04:59:02.994Z,1021.18
2022-10-09T05:00:02.505Z,1021.16
2022-10-09T05:01:03.325Z,1021.21
2022-10-09T05:02:03.581Z,1021.17
2022-10-09T05:03:01.952Z,1021.18
2022-10-09T05:04:02.105Z,1021.18
2022-10-09T05:05:02.261Z,1021.14
2022-10-09T05:06:02.326Z,1021.14
2022-10-09T05:07:04.042Z,1021.11
2022-10-09T05:08:02.633Z,1021.13
2022-10-09T05:09:03.682Z,1021.17
2022-10-09T05:10:02.920Z,1021.17
2022-10-09T05:11:04.681Z,1021.16
2022-10-09T05:12:03.181Z,1021.22
2022-10-09T05:13:03.336Z,1021.23
2022-10-09T05:14:03.461Z,1021.21
2022-10-09T05:15:03.637Z,1021.20
2022-10-09T05:16:04.880Z,1021.24
2022-10-09T05:17:14.385Z,1021.25
2022-10-09T05:18:05.017Z,1021.20
2022-10-09T05:19:04.069Z,1021.29
2022-10-09T05:20:05.820Z,1021.25
2022-10-09T05:21:06.021Z,1021.26
2022-10-09T05:22:06.277Z,1021.27
2022-10-09T05:23:05.571Z,1021.29
2022-10-09T05:24:10.195Z,1021.31
2022-10-09T05:25:04.918Z,1021.29
2022-10-09T05:26:06.619Z,1021.29
2022-10-09T05:27:06.841Z,1021.24
2022-10-09T05:28:07.094Z,1021.27
2022-10-09T05:29:05.442Z,1021.27
2022-10-09T05:30:07.131Z,1021.34
2022-10-09T05:31:05.669Z,1021.30
2022-10-09T05:32:07.465Z,1021.31
2022-10-09T05:33:07.618Z,1021.34
2022-10-09T05:34:07.089Z,1021.31
2022-10-09T05:35:07.832Z,1021.31
2022-10-09T05:36:06.436Z,1021.33
2022-10-09T05:37:08.129Z,1021.34
2022-10-09T05:38:08.336Z,1021.29
2022-10-09T05:39:08.558Z,1021.32
2022-10-09T05:40:07.979Z,1021.29
2022-10-09T05:41:07.178Z,1021.30
2022-10-09T05:42:08.888Z,1021.32
2022-10-09T05:43:07.406Z,1021.29
2022-10-09T05:44:08.517Z,1021.33
2022-10-09T05:45:07.677Z,1021.34
2022-10-09T05:46:09.447Z,1021.28
2022-10-09T05:47:09.639Z,1021.30
2022-10-09T05:48:08.057Z,1021.24
2022-10-09T05:49:09.799Z,1021.21
2022-10-09T05:50:09.355Z,1021.21
2022-10-09T05:51:10.068Z,1021.22
2022-10-09T05:52:10.317Z,1021.18
2022-10-09T05:53:10.554Z,1021.16
2022-10-09T05:54:10.785Z,1021.13
2022-10-09T05:55:11.965Z,1021.17
2022-10-09T05:56:09.194Z,1021.14
2022-10-09T05:57:10.910Z,1021.18
2022-10-09T05:58:11.154Z,1021.19
2022-10-09T05:59:11.396Z,1021.16
2022-10-09T06:00:11.603Z,1021.19
2022-10-09T06:01:09.999Z,1021.22
2022-10-09T06:02:11.701Z,1021.18
2022-10-09T06:03:11.889Z,1021.23
2022-10-09T06:04:12.094Z,1021.18
2022-10-09T06:05:12.334Z,1021.20
2022-10-09T06:06:12.558Z,1021.22
2022-10-09T06:07:12.282Z,1021.25
2022-10-09T06:08:12.496Z,1021.23
2022-10-09T06:09:12.716Z,1021.24
2022-10-09T06:10:12.920Z,1021.25
2022-10-09T06:11:13.159Z,1021.33
2022-10-09T06:12:13.387Z,1021.31
2022-10-09T06:13:13.128Z,1021.30
2022-10-09T06:14:13.334Z,1021.29
2022-10-09T06:15:13.545Z,1021.28
2022-10-09T06:16:11.921Z,1021.28
2022-10-09T06:17:13.626Z,1021.34
2022-10-09T06:18:12.216Z,1021.31
2022-10-09T06:19:13.311Z,1021.34
2022-10-09T06:20:12.493Z,1021.37
2022-10-09T06:21:12.601Z,1021.37
2022-10-09T06:22:14.335Z,1021.32
2022-10-09T06:23:14.570Z,1021.33
2022-10-09T06:24:14.802Z,1021.38
2022-10-09T06:25:15.038Z,1021.30
2022-10-09T06:26:14.763Z,1021.34
2022-10-09T06:27:14.981Z,1021.36
2022-10-09T06:28:15.328Z,1021.32
2022-10-09T06:29:15.459Z,1021.29
2022-10-09T06:30:15.693Z,1021.29
2022-10-09T06:31:15.475Z,1021.35
2022-10-09T06:32:15.639Z,1021.30
2022-10-09T06:33:15.879Z,1021.37
2022-10-09T06:34:16.107Z,1021.39
2022-10-09T06:35:16.320Z,1021.36
2022-10-09T06:36:16.048Z,1021.37
2022-10-09T06:37:14.639Z,1021.36
2022-10-09T06:38:15.782Z,1021.37
2022-10-09T06:39:14.931Z,1021.36
2022-10-09T06:40:16.100Z,1021.39
2022-10-09T06:41:16.818Z,1021.40
2022-10-09T06:42:15.428Z,1021.35
2022-10-09T06:43:16.468Z,1021.40
2022-10-09T06:44:16.958Z,1021.36
2022-10-09T06:45:17.417Z,1021.37
2022-10-09T06:46:17.668Z,1021.38
2022-10-09T06:47:17.877Z,1021.34
2022-10-09T06:48:16.263Z,1021.35
2022-10-09T06:49:16.417Z,1021.33
2022-10-09T06:50:17.519Z,1021.39
2022-10-09T06:51:16.679Z,1021.35
2022-10-09T06:52:18.438Z,1021.36
2022-10-09T06:53:16.995Z,1021.38
2022-10-09T06:54:18.690Z,1021.41
2022-10-09T06:55:18.407Z,1021.45
2022-10-09T06:56:19.126Z,1021.38
2022-10-09T06:57:17.436Z,1021.40
2022-10-09T06:58:19.177Z,1021.41
2022-10-09T06:59:19.397Z,1021.42
2022-10-09T07:00:19.617Z,1021.45
2022-10-09T07:01:18.122Z,1021.47
2022-10-09T07:02:19.820Z,1021.50
2022-10-09T07:03:19.297Z,1021.48
2022-10-09T07:04:20.037Z,1021.51
2022-10-09T07:05:19.554Z,1021.55
2022-10-09T07:06:20.320Z,1021.51
2022-10-09T07:07:20.548Z,1021.53
2022-10-09T07:08:20.764Z,1021.51
2022-10-09T07:09:20.048Z,1021.51
2022-10-09T07:10:24.923Z,1021.51
2022-10-09T07:11:20.394Z,1021.54
2022-10-09T07:12:20.124Z,1021.52
2022-10-09T07:13:21.364Z,1021.54
2022-10-09T07:14:21.593Z,1021.57
2022-10-09T07:15:19.909Z,1021.55
2022-10-09T07:16:20.238Z,1021.54
2022-10-09T07:17:20.187Z,1021.57
2022-10-09T07:18:21.901Z,1021.52
2022-10-09T07:19:21.463Z,1021.53
2022-10-09T07:20:21.739Z,1021.55
2022-10-09T07:21:22.466Z,1021.56
2022-10-09T07:22:26.882Z,1021.61
2022-10-09T07:23:21.090Z,1021.61
2022-10-09T07:24:21.196Z,1021.61
2022-10-09T07:25:21.293Z,1021.62
2022-10-09T07:26:22.034Z,1021.59
2022-10-09T07:27:22.261Z,1021.61
2022-10-09T07:28:21.765Z,1021.60
2022-10-09T07:29:22.841Z,1021.64
2022-10-09T07:30:23.551Z,1021.65
2022-10-09T07:31:22.834Z,1021.65
2022-10-09T07:32:22.231Z,1021.60
2022-10-09T07:33:23.951Z,1021.60
2022-10-09T07:34:23.190Z,1021.69
2022-10-09T07:35:23.671Z,1021.67
2022-10-09T07:36:22.770Z,1021.64
2022-10-09T07:37:22.871Z,1021.65
2022-10-09T07:38:23.023Z,1021.69
2022-10-09T07:39:24.280Z,1021.71
2022-10-09T07:40:24.300Z,1021.72
2022-10-09T07:41:23.453Z,1021.69
2022-10-09T07:42:23.561Z,1021.74
2022-10-09T07:43:24.779Z,1021.75
2022-10-09T07:44:24.999Z,1021.78
2022-10-09T07:45:23.979Z,1021.83
2022-10-09T07:46:24.203Z,1021.80
2022-10-09T07:47:24.295Z,1021.82
2022-10-09T07:48:25.042Z,1021.82
2022-10-09T07:49:24.608Z,1021.82
2022-10-09T07:50:25.757Z,1021.80
2022-10-09T07:51:24.859Z,1021.78
2022-10-09T07:52:25.009Z,1021.78
2022-10-09T07:53:26.228Z,1021.76
2022-10-09T07:54:26.012Z,1021.75
2022-10-09T07:55:25.482Z,1021.76
2022-10-09T07:56:25.588Z,1021.72
2022-10-09T07:57:25.730Z,1021.75
2022-10-09T07:58:25.897Z,1021.73
2022-10-09T07:59:27.568Z,1021.80
2022-10-09T08:00:27.211Z,1021.76
2022-10-09T08:01:26.388Z,1021.75
2022-10-09T08:02:26.461Z,1021.73
2022-10-09T08:03:27.158Z,1021.71
2022-10-09T08:04:27.887Z,1021.68
2022-10-09T08:05:27.872Z,1021.70
2022-10-09T08:06:27.608Z,1021.70
2022-10-09T08:07:29.363Z,1021.67
2022-10-09T08:08:29.240Z,1021.73
2022-10-09T08:09:28.466Z,1021.66
2022-10-09T08:10:28.557Z,1021.62
2022-10-09T08:11:27.685Z,1021.64
2022-10-09T08:12:29.422Z,1021.62
2022-10-09T08:13:28.006Z,1021.64
2022-10-09T08:14:28.186Z,1021.61
2022-10-09T08:15:29.431Z,1021.63
2022-10-09T08:16:28.501Z,1021.63
2022-10-09T08:17:28.586Z,1021.60
2022-10-09T08:18:28.754Z,1021.60
2022-10-09T08:19:28.924Z,1021.63
2022-10-09T08:20:31.144Z,1021.63
2022-10-09T08:21:29.146Z,1021.64
2022-10-09T08:22:29.285Z,1021.64
2022-10-09T08:23:29.354Z,1021.61
2022-10-09T08:24:29.518Z,1021.57
2022-10-09T08:25:31.244Z,1021.62
2022-10-09T08:26:29.860Z,1021.59
2022-10-09T08:27:29.991Z,1021.59
2022-10-09T08:28:30.188Z,1021.63
2022-10-09T08:29:31.197Z,1021.64
2022-10-09T08:30:31.421Z,1021.65
2022-10-09T08:31:33.140Z,1021.61
2022-10-09T08:32:32.373Z,1021.64
2022-10-09T08:33:31.785Z,1021.63
2022-10-09T08:34:31.923Z,1021.66
2022-10-09T08:35:34.685Z,1021.66
2022-10-09T08:36:32.232Z,1021.60
2022-10-09T08:37:32.202Z,1021.62
2022-10-09T08:38:46.853Z,1021.61
2022-10-09T08:39:33.550Z,1021.61
2022-10-09T08:40:33.401Z,1021.63
2022-10-09T08:41:32.967Z,1021.64
2022-10-09T08:42:33.002Z,1021.67
2022-10-09T08:43:33.130Z,1021.65
2022-10-09T08:44:33.071Z,1021.62
2022-10-09T08:45:33.236Z,1021.61
2022-10-09T08:46:34.330Z,1021.62
2022-10-09T08:47:33.552Z,1021.59
2022-10-09T08:48:33.711Z,1021.64
2022-10-09T08:49:34.591Z,1021.64
2022-10-09T08:50:34.083Z,1021.60
2022-10-09T08:51:34.211Z,1021.59
2022-10-09T08:52:34.933Z,1021.54
2022-10-09T08:53:34.532Z,1021.51
2022-10-09T08:54:34.421Z,1021.54
2022-10-09T08:55:34.580Z,1021.53
2022-10-09T08:56:34.742Z,1021.51
2022-10-09T08:57:35.670Z,1021.54
2022-10-09T08:58:35.050Z,1021.52
2022-10-09T08:59:35.210Z,1021.56
2022-10-09T09:00:35.370Z,1021.53
2022-10-09T09:01:36.442Z,1021.52
2022-10-09T09:02:35.817Z,1021.56
2022-10-09T09:03:35.849Z,1021.49
2022-10-09T09:04:36.013Z,1021.51
2022-10-09T09:05:36.908Z,1021.52
2022-10-09T09:06:35.403Z,1021.45
2022-10-09T09:07:37.130Z,1021.42
2022-10-09T09:08:35.718Z,1021.43
2022-10-09T09:09:36.947Z,1021.42
2022-10-09T09:10:37.190Z,1021.44
2022-10-09T09:11:37.107Z,1021.47
2022-10-09T09:12:37.891Z,1021.42
2022-10-09T09:13:37.431Z,1021.41
2022-10-09T09:14:37.358Z,1021.41
2022-10-09T09:15:37.720Z,1021.44
2022-10-09T09:16:37.859Z,1021.40
2022-10-09T09:17:38.089Z,1021.39
2022-10-09T09:18:41.922Z,1021.35
2022-10-09T09:19:38.289Z,1021.35
2022-10-09T09:20:38.434Z,1021.37
2022-10-09T09:21:37.579Z,1021.35
2022-10-09T09:22:37.737Z,1021.36
2022-10-09T09:23:39.479Z,1021.33
2022-10-09T09:24:39.702Z,1021.33
2022-10-09T09:25:39.427Z,1021.34
2022-10-09T09:26:38.254Z,1021.30
2022-10-09T09:27:38.339Z,1021.34
2022-10-09T09:28:38.576Z,1021.34
2022-10-09T09:29:38.621Z,1021.31
2022-10-09T09:30:39.856Z,1021.31
2022-10-09T09:31:39.013Z,1021.30
2022-10-09T09:32:39.057Z,1021.28
2022-10-09T09:33:44.598Z,1021.26
2022-10-09T09:34:39.301Z,1021.23
2022-10-09T09:35:41.750Z,1021.21
2022-10-09T09:36:39.590Z,1021.18
2022-10-09T09:37:42.235Z,1021.18
2022-10-09T09:39:02.443Z,1021.17
2022-10-09T09:40:31.321Z,1021.17
2022-10-09T09:40:46.600Z,1021.16
2022-10-09T09:41:42.195Z,1021.17
2022-10-09T09:42:41.325Z,1021.19
2022-10-09T09:43:40.453Z,1021.14
2022-10-09T09:44:40.620Z,1021.17
2022-10-09T09:45:43.291Z,1021.16
2022-10-09T09:46:40.923Z,1021.15
2022-10-09T09:47:41.052Z,1021.16
2022-10-09T09:48:41.134Z,1021.11
2022-10-09T09:49:42.186Z,1021.12
2022-10-09T09:50:52.970Z,1021.12
2022-10-09T09:51:44.320Z,1021.11
2022-10-09T09:52:42.674Z,1021.10
2022-10-09T09:53:42.572Z,1021.05
2022-10-09T09:54:42.734Z,1021.07
2022-10-09T09:55:42.892Z,1021.04
2022-10-09T09:57:44.233Z,1021.00
2022-10-09T09:58:43.387Z,1020.99
2022-10-09T09:59:43.554Z,1020.98
2022-10-09T10:00:43.742Z,1020.99
2022-10-09T10:01:45.519Z,1020.97
2022-10-09T10:13:01.720Z,1020.69
2022-10-09T10:14:01.832Z,1020.69
2022-10-09T10:15:01.968Z,1020.67
2022-10-09T10:16:02.119Z,1020.69
2022-10-09T10:17:02.171Z,1020.68
2022-10-09T10:18:03.394Z,1020.68
2022-10-09T10:19:02.506Z,1020.69
2022-10-09T10:20:03.619Z,1020.69
2022-10-09T10:21:03.721Z,1020.69
2022-10-09T10:22:03.692Z,1020.65
2022-10-09T10:23:03.855Z,1020.68
2022-10-09T10:24:04.671Z,1020.62
2022-10-09T10:25:03.219Z,1020.61
2022-10-09T10:26:04.933Z,1020.65
2022-10-09T10:27:03.511Z,1020.65
2022-10-09T10:28:04.430Z,1020.60
2022-10-09T10:29:06.224Z,1020.58
2022-10-09T10:30:05.513Z,1020.60
2022-10-09T10:31:04.046Z,1020.59
2022-10-09T10:32:07.670Z,1020.59
2022-10-09T10:33:06.710Z,1020.56
2022-10-09T10:34:05.422Z,1020.58
2022-10-09T10:35:06.183Z,1020.55
2022-10-09T10:36:05.618Z,1020.53
2022-10-09T10:37:04.838Z,1020.51
2022-10-09T10:38:05.002Z,1020.45
2022-10-09T10:39:05.159Z,1020.46
2022-10-09T10:40:06.388Z,1020.45
2022-10-09T10:41:05.443Z,1020.43
2022-10-09T10:42:05.527Z,1020.47
2022-10-09T10:43:05.700Z,1020.45
2022-10-09T10:44:05.803Z,1020.45
2022-10-09T10:45:07.566Z,1020.43
2022-10-09T10:46:06.109Z,1020.39
2022-10-09T10:47:06.256Z,1020.42
2022-10-09T10:48:06.408Z,1020.40
2022-10-09T10:49:06.567Z,1020.39
2022-10-09T10:50:08.296Z,1020.40
2022-10-09T10:51:07.853Z,1020.42
2022-10-09T10:52:08.594Z,1020.43
2022-10-09T10:53:08.836Z,1020.42
2022-10-09T10:54:08.700Z,1020.42
2022-10-09T10:55:08.212Z,1020.36
2022-10-09T10:56:10.024Z,1020.38
2022-10-09T10:57:10.242Z,1020.35
2022-10-09T10:58:08.793Z,1020.40
2022-10-09T10:59:08.923Z,1020.37
2022-10-09T11:00:09.591Z,1020.32
2022-10-09T11:01:10.821Z,1020.34
2022-10-09T11:02:11.036Z,1020.28
2022-10-09T11:03:09.571Z,1020.34
2022-10-09T11:04:09.645Z,1020.30
2022-10-09T11:05:09.745Z,1020.31
2022-10-09T11:06:11.457Z,1020.30
2022-10-09T11:07:09.865Z,1020.28
2022-10-09T11:08:11.715Z,1020.24
2022-10-09T11:09:10.185Z,1020.22
2022-10-09T11:10:12.093Z,1020.15
2022-10-09T11:11:12.086Z,1020.17
2022-10-09T11:12:19.649Z,1020.15
2022-10-09T11:13:12.495Z,1020.09
2022-10-09T11:14:10.994Z,1020.12
2022-10-09T11:15:10.910Z,1020.10
2022-10-09T11:16:11.143Z,1020.17
2022-10-09T11:17:12.944Z,1020.16
2022-10-09T11:18:13.174Z,1020.11
2022-10-09T11:19:11.532Z,1020.14
2022-10-09T11:20:13.363Z,1020.11
2022-10-09T11:21:11.853Z,1020.03
2022-10-09T11:22:12.013Z,1020.09
2022-10-09T11:23:12.172Z,1020.10
2022-10-09T11:24:12.332Z,1020.06
2022-10-09T11:25:14.532Z,1020.01
2022-10-09T11:26:14.273Z,1019.95
2022-10-09T11:27:12.555Z,1020.01
2022-10-09T11:28:12.968Z,1019.95
2022-10-09T11:29:12.890Z,1019.95
2022-10-09T11:30:14.616Z,1019.93
2022-10-09T11:31:14.890Z,1019.91
2022-10-09T11:32:13.358Z,1019.89
2022-10-09T11:33:13.268Z,1019.88
2022-10-09T11:34:13.438Z,1019.90
2022-10-09T11:35:13.591Z,1019.87
2022-10-09T11:36:15.443Z,1019.85
2022-10-09T11:37:13.901Z,1019.83
2022-10-09T11:38:14.060Z,1019.83
2022-10-09T11:39:14.229Z,1019.82
2022-10-09T11:40:14.431Z,1019.81
2022-10-09T11:41:16.053Z,1019.81
2022-10-09T11:42:14.701Z,1019.79
2022-10-09T11:43:14.867Z,1019.75
2022-10-09T11:44:16.482Z,1019.69
2022-10-09T11:45:15.649Z,1019.69
2022-10-09T11:46:16.951Z,1019.66
2022-10-09T11:47:15.514Z,1019.61
2022-10-09T11:48:15.665Z,1019.68
2022-10-09T11:49:14.840Z,1019.64
2022-10-09T11:50:16.574Z,1019.67
2022-10-09T11:51:15.120Z,1019.63
2022-10-09T11:52:15.273Z,1019.60
2022-10-09T11:53:16.380Z,1019.58
2022-10-09T11:54:17.141Z,1019.55
2022-10-09T11:55:15.729Z,1019.53
2022-10-09T11:56:17.470Z,1019.55
2022-10-09T11:57:18.884Z,1019.55
2022-10-09T11:58:17.008Z,1019.51
2022-10-09T11:59:17.840Z,1019.54
2022-10-09T12:00:18.748Z,1019.48
2022-10-09T12:01:19.022Z,1019.41
2022-10-09T12:02:17.446Z,1019.43
2022-10-09T12:03:16.762Z,1019.39
2022-10-09T12:04:23.899Z,1019.40
2022-10-09T12:05:18.911Z,1019.35
2022-10-09T12:06:18.845Z,1019.34
2022-10-09T12:07:18.190Z,1019.34
2022-10-09T12:08:20.019Z,1019.32
2022-10-09T12:09:18.508Z,1019.29
2022-10-09T12:10:20.229Z,1019.28
2022-10-09T12:11:19.503Z,1019.29
2022-10-09T12:12:18.097Z,1019.26
2022-10-09T12:13:18.280Z,1019.28
2022-10-09T12:14:20.334Z,1019.21
2022-10-09T12:15:18.567Z,1019.19
2022-10-09T12:16:20.356Z,1019.21
2022-10-09T12:17:20.516Z,1019.14
2022-10-09T12:18:19.056Z,1019.16
2022-10-09T12:19:19.223Z,1019.09
2022-10-09T12:20:19.378Z,1019.05
2022-10-09T12:21:19.546Z,1019.08
2022-10-09T12:22:21.278Z,1019.04
2022-10-09T12:23:26.720Z,1019.01
2022-10-09T12:24:20.855Z,1019.02
2022-10-09T12:25:20.010Z,1019.02
2022-10-09T12:26:20.096Z,1019.01
2022-10-09T12:27:21.835Z,1019.04
2022-10-09T12:28:22.109Z,1019.00
2022-10-09T12:29:21.505Z,1018.98
2022-10-09T12:30:21.743Z,1018.99
2022-10-09T12:31:21.846Z,1018.96
2022-10-09T12:32:20.895Z,1019.00
2022-10-09T12:33:22.075Z,1018.96
2022-10-09T12:34:23.804Z,1019.00
2022-10-09T12:35:22.403Z,1018.98
2022-10-09T12:36:23.108Z,1018.99
2022-10-09T12:37:21.635Z,1018.96
2022-10-09T12:38:23.355Z,1018.90
2022-10-09T12:39:23.584Z,1018.87
2022-10-09T12:40:22.056Z,1018.89
2022-10-09T12:41:23.228Z,1018.91
2022-10-09T12:42:22.461Z,1018.87
2022-10-09T12:43:23.521Z,1018.87
2022-10-09T12:44:23.770Z,1018.91
2022-10-09T12:45:22.743Z,1018.84
2022-10-09T12:46:24.547Z,1018.84
2022-10-09T12:47:23.008Z,1018.79
2022-10-09T12:48:24.143Z,1018.78
2022-10-09T12:49:24.863Z,1018.75
2022-10-09T12:50:25.082Z,1018.79
2022-10-09T12:51:25.284Z,1018.80
2022-10-09T12:52:23.702Z,1018.76
2022-10-09T12:53:25.432Z,1018.76
2022-10-09T12:54:25.634Z,1018.65
2022-10-09T12:55:24.062Z,1018.69
2022-10-09T12:56:24.254Z,1018.64
2022-10-09T12:57:27.755Z,1018.61
2022-10-09T12:58:24.523Z,1018.60
2022-10-09T12:59:25.691Z,1018.59
2022-10-09T13:00:27.342Z,1018.62
2022-10-09T13:01:27.505Z,1018.56
2022-10-09T13:02:27.733Z,1018.58
2022-10-09T13:03:25.284Z,1018.55
2022-10-09T13:04:27.833Z,1018.54
2022-10-09T13:05:27.921Z,1018.51
2022-10-09T13:06:28.102Z,1018.51
2022-10-09T13:07:27.384Z,1018.47
2022-10-09T13:08:26.929Z,1018.51
2022-10-09T13:09:27.073Z,1018.49
2022-10-09T13:10:27.791Z,1018.46
2022-10-09T13:11:27.381Z,1018.47
2022-10-09T13:12:26.514Z,1018.39
2022-10-09T13:13:26.632Z,1018.36
2022-10-09T13:14:28.361Z,1018.37
2022-10-09T13:15:27.609Z,1018.39
2022-10-09T13:16:28.845Z,1018.38
2022-10-09T13:17:27.175Z,1018.31
2022-10-09T13:18:28.330Z,1018.32
2022-10-09T13:19:27.413Z,1018.29
2022-10-09T13:20:29.139Z,1018.26
2022-10-09T13:21:30.064Z,1018.21
2022-10-09T13:22:30.025Z,1018.22
2022-10-09T13:23:27.929Z,1018.16
2022-10-09T13:24:29.665Z,1018.17
2022-10-09T13:25:28.240Z,1018.17
2022-10-09T13:26:29.958Z,1018.17
2022-10-09T13:27:28.553Z,1018.13
2022-10-09T13:28:28.758Z,1018.10
2022-10-09T13:29:28.858Z,1018.06
2022-10-09T13:30:30.066Z,1018.03
2022-10-09T13:31:30.238Z,1018.06
2022-10-09T13:32:29.307Z,1018.04
2022-10-09T13:33:29.477Z,1018.02
2022-10-09T13:34:31.196Z,1018.03
2022-10-09T13:35:30.779Z,1018.00
2022-10-09T13:36:30.916Z,1017.97
2022-10-09T13:37:30.077Z,1017.96
2022-10-09T13:38:34.753Z,1017.92
2022-10-09T13:39:31.366Z,1017.91
2022-10-09T13:40:31.590Z,1017.91
2022-10-09T13:41:31.667Z,1017.87
2022-10-09T13:42:30.827Z,1017.91
2022-10-09T13:43:32.079Z,1017.83
2022-10-09T13:44:31.155Z,1017.82
2022-10-09T13:45:32.876Z,1017.77
2022-10-09T13:46:31.530Z,1017.80
2022-10-09T13:47:31.550Z,1017.74
2022-10-09T13:48:32.686Z,1017.77
2022-10-09T13:49:31.797Z,1017.78
2022-10-09T13:50:33.016Z,1017.72
2022-10-09T13:51:33.109Z,1017.75
2022-10-09T13:52:32.337Z,1017.72
2022-10-09T13:53:34.031Z,1017.72
2022-10-09T13:54:32.496Z,1017.71
2022-10-09T13:55:32.660Z,1017.71
2022-10-09T13:56:32.825Z,1017.68
2022-10-09T13:57:32.974Z,1017.68
2022-10-09T13:58:34.206Z,1017.72
2022-10-09T13:59:33.301Z,1017.66
2022-10-09T14:00:34.548Z,1017.66
2022-10-09T14:01:34.673Z,1017.62
2022-10-09T14:02:33.759Z,1017.60
2022-10-09T14:03:33.900Z,1017.59
2022-10-09T14:04:35.034Z,1017.55
2022-10-09T14:05:35.264Z,1017.54
2022-10-09T14:06:35.357Z,1017.59
2022-10-09T14:07:34.514Z,1017.55
2022-10-09T14:08:34.622Z,1017.53
2022-10-09T14:09:36.364Z,1017.52
2022-10-09T14:10:36.628Z,1017.50
2022-10-09T14:11:36.836Z,1017.49
2022-10-09T14:12:35.111Z,1017.45
2022-10-09T14:13:36.313Z,1017.42
2022-10-09T14:14:36.383Z,1017.46
2022-10-09T14:15:37.104Z,1017.41
2022-10-09T14:16:35.673Z,1017.41
2022-10-09T14:17:36.795Z,1017.40
2022-10-09T14:18:37.515Z,1017.36
2022-10-09T14:19:36.092Z,1017.36
2022-10-09T14:20:38.323Z,1017.39
2022-10-09T14:21:36.370Z,1017.36
2022-10-09T14:22:36.531Z,1017.31
2022-10-09T14:23:38.252Z,1017.29
2022-10-09T14:24:36.785Z,1017.30
2022-10-09T14:25:36.928Z,1017.26
2022-10-09T14:26:37.139Z,1017.23
2022-10-09T14:27:39.279Z,1017.22
2022-10-09T14:28:39.009Z,1017.23
2022-10-09T14:29:37.531Z,1017.18
2022-10-09T14:30:37.682Z,1017.17
2022-10-09T14:31:39.425Z,1017.17
2022-10-09T14:32:38.002Z,1017.12
2022-10-09T14:33:38.125Z,1017.09
2022-10-09T14:34:38.291Z,1017.12
2022-10-09T14:35:38.398Z,1017.10
2022-10-09T14:36:40.123Z,1017.08
2022-10-09T14:37:42.507Z,1017.06
2022-10-09T14:38:40.413Z,1017.02
2022-10-09T14:39:38.991Z,1017.02
2022-10-09T14:40:40.213Z,1017.00
2022-10-09T14:41:39.339Z,1017.00
2022-10-09T14:42:39.441Z,1016.93
2022-10-09T14:43:39.584Z,1016.89
2022-10-09T14:44:41.311Z,1016.93
2022-10-09T14:45:39.852Z,1016.89
2022-10-09T14:46:40.016Z,1016.86
2022-10-09T14:47:40.151Z,1016.89
2022-10-09T14:48:40.290Z,1016.84
2022-10-09T14:49:42.011Z,1016.84
2022-10-09T14:50:40.594Z,1016.79
2022-10-09T14:51:42.317Z,1016.79
2022-10-09T14:52:40.904Z,1016.80
2022-10-09T14:53:41.051Z,1016.78
2022-10-09T14:54:41.219Z,1016.77
2022-10-09T14:55:42.439Z,1016.69
2022-10-09T14:56:43.159Z,1016.70
2022-10-09T14:57:41.592Z,1016.65
2022-10-09T14:58:42.686Z,1016.67
2022-10-09T14:59:41.808Z,1016.68
2022-10-09T15:00:41.961Z,1016.71
2022-10-09T15:01:43.708Z,1016.65
2022-10-09T15:03:42.456Z,1016.69
2022-10-09T15:04:42.543Z,1016.65
2022-10-09T15:05:42.697Z,1016.65
2022-10-09T15:06:44.437Z,1016.57
2022-10-09T15:07:43.948Z,1016.57
2022-10-09T15:08:43.075Z,1016.52
2022-10-09T15:09:44.221Z,1016.52
2022-10-09T15:10:44.499Z,1016.50
2022-10-09T15:11:45.216Z,1016.51
2022-10-09T15:12:43.630Z,1016.53
2022-10-09T15:13:43.777Z,1016.51
2022-10-09T15:14:45.506Z,1016.44
2022-10-09T15:15:45.739Z,1016.50
2022-10-09T15:16:44.217Z,1016.50
2022-10-09T15:17:44.376Z,1016.45
2022-10-09T15:18:44.505Z,1016.45
2022-10-09T15:19:45.716Z,1016.44
2022-10-09T15:20:45.787Z,1016.42
2022-10-09T15:21:46.517Z,1016.42
2022-10-09T15:22:45.066Z,1016.45
2022-10-09T15:23:46.226Z,1016.36
2022-10-09T15:24:45.368Z,1016.36
2022-10-09T15:25:46.530Z,1016.35
2022-10-09T15:26:47.265Z,1016.34
2022-10-09T15:27:45.775Z,1016.37
2022-10-09T15:28:47.554Z,1016.36
2022-10-09T15:29:46.046Z,1016.34
2022-10-09T15:30:46.145Z,1016.32
2022-10-09T15:31:47.879Z,1016.34
2022-10-09T15:32:46.394Z,1016.32
2022-10-09T15:33:48.162Z,1016.29
2022-10-09T15:34:46.709Z,1016.30
2022-10-09T15:35:46.816Z,1016.26
2022-10-09T15:36:48.527Z,1016.29
2022-10-09T15:37:48.619Z,1016.25
2022-10-09T15:38:47.213Z,1016.24
2022-10-09T15:39:47.354Z,1016.19
2022-10-09T15:40:48.546Z,1016.22
2022-10-09T15:41:49.274Z,1016.22
2022-10-09T15:42:49.074Z,1016.20
2022-10-09T15:43:47.975Z,1016.19
2022-10-09T15:44:49.133Z,1016.18
2022-10-09T15:45:48.258Z,1016.17
2022-10-09T15:46:49.974Z,1016.17
2022-10-09T15:47:51.680Z,1016.14
2022-10-09T15:48:48.745Z,1016.14
2022-10-09T15:49:53.219Z,1016.10
2022-10-09T15:50:50.052Z,1016.09
2022-10-09T15:51:50.273Z,1016.10
2022-10-09T15:52:49.656Z,1016.11
2022-10-09T15:53:50.642Z,1016.12
2022-10-09T15:54:49.662Z,1016.08
2022-10-09T15:55:50.843Z,1016.06
2022-10-09T15:56:51.573Z,1016.09
2022-10-09T15:57:50.032Z,1016.00
2022-10-09T15:58:50.188Z,1016.05
2022-10-09T15:59:51.906Z,1016.02
2022-10-09T16:00:51.481Z,1016.04
2022-10-09T16:12:12.410Z,1015.93
2022-10-09T16:13:13.499Z,1015.91
2022-10-09T16:14:13.729Z,1015.89
2022-10-09T16:15:13.962Z,1015.92
2022-10-09T16:16:12.206Z,1015.89
2022-10-09T16:17:11.680Z,1015.89
2022-10-09T16:18:14.206Z,1015.85
2022-10-09T16:19:11.794Z,1015.84
2022-10-09T16:20:11.937Z,1015.80
2022-10-09T16:21:14.616Z,1015.86
2022-10-09T16:22:12.216Z,1015.83
2022-10-09T16:23:12.391Z,1015.85
2022-10-09T16:24:13.226Z,1015.86
2022-10-09T16:25:15.086Z,1015.82
2022-10-09T16:26:14.358Z,1015.80
2022-10-09T16:27:12.960Z,1015.76
2022-10-09T16:28:13.086Z,1015.80